Time;durP1;ratioP1;P1;durP2;ratioP2;P2;SDS_P1;SDS_P2;PMS_P1;PMS_P2;Temp;Humidity;BMP_temperature;BMP_pressure;BME280_temperature;BME280_humidity;BME280_pressure;Samples;Min_cycle;Max_cycle;Signal;HPM_P1;HPM_P2
2022/07/25 00:00:12;;;;;;;0.40;0.30;;;21.70;99.90;;;;;;4932010;29;20473;-69
2022/07/25 00:02:38;;;;;;;0.40;0.20;;;21.70;99.90;;;;;;4931466;29;20400;-69
2022/07/25 00:05:05;;;;;;;1.90;1.80;;;21.70;99.90;;;;;;4932823;29;20407;-69
2022/07/25 00:07:30;;;;;;;0.70;0.60;;;21.70;99.90;;;;;;4932368;29;20809;-69
2022/07/25 00:09:56;;;;;;;0.85;0.73;;;21.70;99.90;;;;;;4942719;29;20390;-68
2022/07/25 00:12:22;;;;;;;1.10;0.50;;;21.50;99.90;;;;;;4952161;29;20481;-68
2022/07/25 00:14:48;;;;;;;0.77;0.77;;;21.50;99.90;;;;;;4934018;29;20419;-69
2022/07/25 00:17:13;;;;;;;0.50;0.40;;;21.50;99.90;;;;;;4932597;29;20406;-69
2022/07/25 00:19:39;;;;;;;0.40;0.30;;;21.40;99.90;;;;;;4931344;29;20407;-69
2022/07/25 00:22:05;;;;;;;0.60;0.60;;;21.30;99.90;;;;;;4932461;29;20392;-69
2022/07/25 00:24:30;;;;;;;0.40;0.30;;;21.30;99.90;;;;;;4932886;29;20415;-69
2022/07/25 00:26:56;;;;;;;0.40;0.20;;;21.30;99.90;;;;;;4931987;29;20395;-69
2022/07/25 00:29:22;;;;;;;0.50;0.50;;;21.30;99.90;;;;;;4932603;29;20924;-68
2022/07/25 00:31:48;;;;;;;0.40;0.30;;;21.10;99.90;;;;;;4932090;29;20407;-68
2022/07/25 00:34:13;;;;;;;0.90;0.90;;;21.10;99.90;;;;;;4932248;29;20507;-68
2022/07/25 00:36:39;;;;;;;0.40;0.20;;;21.10;99.90;;;;;;4931961;29;20451;-69
2022/07/25 00:39:05;;;;;;;0.40;0.20;;;21.10;99.90;;;;;;4932597;29;20769;-68
2022/07/25 00:41:30;;;;;;;0.80;0.80;;;21.00;99.90;;;;;;4932639;29;20540;-68
2022/07/25 00:43:56;;;;;;;0.40;0.20;;;21.00;99.90;;;;;;4931640;29;20988;-69
2022/07/25 00:46:22;;;;;;;0.70;0.60;;;20.90;99.90;;;;;;4943830;29;20390;-68
2022/07/25 00:48:48;;;;;;;0.80;0.80;;;20.80;99.90;;;;;;4944652;29;20459;-69
2022/07/25 00:51:15;;;;;;;0.40;0.30;;;20.90;99.90;;;;;;4932696;29;20436;-69
2022/07/25 00:53:41;;;;;;;0.50;0.40;;;20.80;99.90;;;;;;4935040;29;20482;-69
2022/07/25 00:56:07;;;;;;;0.40;0.30;;;20.80;99.90;;;;;;4935533;29;20483;-68
2022/07/25 00:58:33;;;;;;;0.40;0.30;;;20.90;99.90;;;;;;4935527;29;20407;-68
2022/07/25 01:01:00;;;;;;;0.40;0.30;;;20.80;99.90;;;;;;4935089;29;20486;-68
2022/07/25 01:03:25;;;;;;;2.00;0.70;;;20.80;99.90;;;;;;4936003;29;20399;-68
2022/07/25 01:05:51;;;;;;;1.60;1.50;;;20.70;99.90;;;;;;4934482;29;20431;-68
2022/07/25 01:08:18;;;;;;;0.40;0.30;;;20.70;99.90;;;;;;4935479;29;20395;-68
2022/07/25 01:10:45;;;;;;;0.80;0.80;;;20.70;99.90;;;;;;4934684;29;20526;-69
2022/07/25 01:13:10;;;;;;;0.57;0.57;;;20.70;99.90;;;;;;4934063;29;20424;-69
2022/07/25 01:15:36;;;;;;;0.40;0.30;;;20.70;99.90;;;;;;4934756;29;20459;-69
2022/07/25 01:18:02;;;;;;;0.60;0.60;;;20.70;99.90;;;;;;4934066;29;20400;-69
2022/07/25 01:20:30;;;;;;;1.00;0.50;;;20.60;99.90;;;;;;4932829;29;20396;-69
2022/07/25 01:22:56;;;;;;;0.40;0.30;;;20.70;99.90;;;;;;4931894;29;20404;-69
2022/07/25 01:25:23;;;;;;;0.40;0.40;;;20.70;99.90;;;;;;4935116;29;20419;-68
2022/07/25 01:27:49;;;;;;;0.40;0.22;;;20.70;99.90;;;;;;4934357;29;20773;-68
2022/07/25 01:30:16;;;;;;;0.60;0.60;;;20.60;99.90;;;;;;4935087;29;20423;-69
2022/07/25 01:32:43;;;;;;;0.40;0.30;;;20.60;99.90;;;;;;4934300;29;20415;-69
2022/07/25 01:35:10;;;;;;;0.80;0.80;;;20.60;99.90;;;;;;4935391;29;20481;-68
2022/07/25 01:37:36;;;;;;;0.50;0.50;;;20.60;99.90;;;;;;4935032;29;20888;-68
2022/07/25 01:40:03;;;;;;;0.52;0.43;;;20.50;99.90;;;;;;4934193;29;20474;-69
2022/07/25 01:42:29;;;;;;;0.40;0.40;;;20.50;99.90;;;;;;4934925;29;20407;-68
2022/07/25 01:44:55;;;;;;;0.50;0.50;;;20.50;99.90;;;;;;4934489;29;20400;-68
2022/07/25 01:47:21;;;;;;;0.40;0.40;;;20.40;99.90;;;;;;4934711;29;20403;-69
2022/07/25 01:49:46;;;;;;;0.40;0.30;;;20.50;99.90;;;;;;4934183;29;20400;-69
2022/07/25 01:52:13;;;;;;;0.43;0.43;;;20.40;99.90;;;;;;4935025;29;20400;-69
2022/07/25 01:54:39;;;;;;;0.70;0.70;;;20.40;99.90;;;;;;4934276;29;20450;-68
2022/07/25 01:57:04;;;;;;;0.80;0.80;;;20.40;99.90;;;;;;4934452;29;20400;-69
2022/07/25 01:59:30;;;;;;;1.20;1.00;;;20.40;99.90;;;;;;4934196;29;20411;-69
2022/07/25 02:01:56;;;;;;;0.40;0.30;;;20.40;99.90;;;;;;4933709;29;20404;-69
2022/07/25 02:04:22;;;;;;;1.00;1.00;;;20.40;99.90;;;;;;4934380;29;20402;-69
2022/07/25 02:06:48;;;;;;;0.40;0.30;;;20.40;99.90;;;;;;4934060;29;20399;-68
2022/07/25 02:09:14;;;;;;;0.40;0.30;;;20.40;99.90;;;;;;4934442;29;20458;-68
2022/07/25 02:11:40;;;;;;;0.40;0.40;;;20.30;99.90;;;;;;4934796;29;20754;-68
2022/07/25 02:14:05;;;;;;;0.40;0.30;;;20.30;99.90;;;;;;4933840;29;20710;-69
2022/07/25 02:16:31;;;;;;;0.60;0.50;;;20.30;99.90;;;;;;4934619;29;20446;-68
2022/07/25 02:18:57;;;;;;;0.40;0.40;;;20.20;99.90;;;;;;4933701;29;20960;-69
2022/07/25 02:21:23;;;;;;;0.40;0.30;;;20.30;99.90;;;;;;4935541;29;20395;-68
2022/07/25 02:23:49;;;;;;;0.50;0.50;;;20.30;99.90;;;;;;4952916;29;20400;-68
2022/07/25 02:26:15;;;;;;;0.50;0.50;;;20.20;99.90;;;;;;4945699;29;20482;-68
2022/07/25 02:28:40;;;;;;;0.40;0.20;;;20.30;99.90;;;;;;4934352;29;20400;-68
2022/07/25 02:31:07;;;;;;;0.40;0.30;;;20.20;99.90;;;;;;4933405;29;20880;-68
2022/07/25 02:33:32;;;;;;;1.00;0.70;;;20.20;99.90;;;;;;4944681;29;20435;-68
2022/07/25 02:35:58;;;;;;;0.40;0.20;;;20.20;99.90;;;;;;4932994;29;20844;-68
2022/07/25 02:38:24;;;;;;;0.40;0.30;;;20.20;99.90;;;;;;4934166;29;20486;-68
2022/07/25 02:40:51;;;;;;;0.40;0.30;;;20.20;99.90;;;;;;4933359;29;20829;-69
2022/07/25 02:43:17;;;;;;;0.40;0.30;;;20.30;99.90;;;;;;4934189;29;20388;-68
2022/07/25 02:45:44;;;;;;;0.40;0.40;;;20.20;99.90;;;;;;4933277;29;20399;-69
2022/07/25 02:48:09;;;;;;;0.40;0.20;;;20.10;99.90;;;;;;4933047;29;20582;-68
2022/07/25 02:50:35;;;;;;;0.40;0.30;;;20.10;99.90;;;;;;4933922;29;20961;-68
2022/07/25 02:53:01;;;;;;;0.40;0.30;;;20.10;99.90;;;;;;4933100;29;20868;-68
2022/07/25 02:55:26;;;;;;;1.00;1.00;;;20.10;99.90;;;;;;4933899;29;20522;-68
2022/07/25 02:57:52;;;;;;;0.40;0.30;;;20.10;99.90;;;;;;4932244;29;20412;-68
2022/07/25 03:00:18;;;;;;;0.43;0.40;;;20.10;99.90;;;;;;4933244;29;20437;-68
2022/07/25 03:02:44;;;;;;;0.40;0.30;;;20.20;99.90;;;;;;4933678;29;20422;-69
2022/07/25 03:05:11;;;;;;;0.40;0.30;;;20.20;99.90;;;;;;4932835;29;20403;-69
2022/07/25 03:07:37;;;;;;;0.90;0.60;;;20.10;99.90;;;;;;4933597;29;20412;-68
2022/07/25 03:10:05;;;;;;;0.40;0.30;;;20.10;99.90;;;;;;4932429;29;21352;-69
2022/07/25 03:12:34;;;;;;;0.40;0.20;;;20.10;99.90;;;;;;4933502;29;20404;-69
2022/07/25 03:15:01;;;;;;;0.60;0.60;;;20.10;99.90;;;;;;4931680;29;20817;-69
2022/07/25 03:17:27;;;;;;;0.63;0.63;;;20.20;99.90;;;;;;4933546;29;20408;-68
2022/07/25 03:19:56;;;;;;;0.40;0.30;;;20.30;99.90;;;;;;4932489;29;20829;-69
2022/07/25 03:22:22;;;;;;;0.40;0.32;;;20.20;99.90;;;;;;4933291;29;20410;-68
2022/07/25 03:24:49;;;;;;;0.50;0.50;;;20.00;99.90;;;;;;4932299;29;20502;-69
2022/07/25 03:27:15;;;;;;;0.40;0.35;;;20.00;99.90;;;;;;4933465;29;20788;-68
2022/07/25 03:29:40;;;;;;;0.50;0.50;;;19.90;99.90;;;;;;4933530;29;20392;-68
2022/07/25 03:32:07;;;;;;;0.40;0.30;;;19.90;99.90;;;;;;4932352;29;20435;-68
2022/07/25 03:34:33;;;;;;;0.60;0.60;;;19.90;99.90;;;;;;4933492;29;20458;-68
2022/07/25 03:36:59;;;;;;;0.40;0.30;;;19.80;99.90;;;;;;4932835;29;20804;-68
2022/07/25 03:39:26;;;;;;;0.40;0.30;;;19.80;99.90;;;;;;4933617;29;20443;-68
2022/07/25 03:41:52;;;;;;;0.50;0.50;;;19.80;99.90;;;;;;4932514;29;20406;-68
2022/07/25 03:44:19;;;;;;;0.80;0.80;;;19.80;99.90;;;;;;4933419;29;20503;-68
2022/07/25 03:46:44;;;;;;;1.50;1.40;;;19.80;99.90;;;;;;4915950;29;21053;-68
2022/07/25 03:49:10;;;;;;;0.50;0.40;;;19.80;99.90;;;;;;4932787;29;20502;-68
2022/07/25 03:51:37;;;;;;;0.70;0.70;;;19.70;99.90;;;;;;4933271;29;20450;-68
2022/07/25 03:54:03;;;;;;;0.40;0.30;;;19.70;99.90;;;;;;4942846;29;20422;-68
2022/07/25 03:56:36;;;;;;;0.40;0.30;;;19.60;99.90;;;;;;4932972;29;20475;-68
2022/07/25 03:59:02;;;;;;;0.40;0.30;;;19.60;99.90;;;;;;4932154;29;20416;-68
2022/07/25 04:01:28;;;;;;;0.50;0.50;;;19.50;99.90;;;;;;4932946;29;20457;-68
2022/07/25 04:03:53;;;;;;;0.40;0.20;;;19.50;99.90;;;;;;4932392;29;20859;-69
2022/07/25 04:06:19;;;;;;;0.70;0.70;;;19.60;99.90;;;;;;4933178;29;20406;-68
2022/07/25 04:08:45;;;;;;;0.40;0.40;;;19.60;99.90;;;;;;4933484;29;20400;-68
2022/07/25 04:11:11;;;;;;;0.90;0.90;;;19.60;99.90;;;;;;4932246;29;21193;-68
2022/07/25 04:13:36;;;;;;;0.40;0.30;;;19.70;99.90;;;;;;4933343;29;20404;-68
2022/07/25 04:16:02;;;;;;;0.40;0.20;;;19.70;99.90;;;;;;4932242;29;20430;-68
2022/07/25 04:18:28;;;;;;;0.80;0.80;;;19.60;99.90;;;;;;4916213;29;20439;-68
2022/07/25 04:20:53;;;;;;;0.47;0.45;;;19.70;99.90;;;;;;4931879;29;20485;-68
2022/07/25 04:23:19;;;;;;;0.40;0.20;;;19.70;99.90;;;;;;4933212;29;20404;-68
2022/07/25 04:25:44;;;;;;;1.30;1.20;;;19.80;99.90;;;;;;4933495;29;20423;-68
2022/07/25 04:28:10;;;;;;;0.60;0.60;;;19.90;99.90;;;;;;4936139;29;20395;-68
2022/07/25 04:30:36;;;;;;;0.40;0.32;;;19.90;99.90;;;;;;4936063;29;20545;-69
2022/07/25 04:33:02;;;;;;;0.40;0.27;;;19.80;99.90;;;;;;4945246;29;20950;-69
2022/07/25 04:35:27;;;;;;;0.57;0.47;;;19.80;99.90;;;;;;4956028;29;20771;-68
2022/07/25 04:37:53;;;;;;;1.60;0.80;;;19.80;99.90;;;;;;4939559;29;20466;-69
2022/07/25 04:40:19;;;;;;;0.40;0.30;;;19.80;99.90;;;;;;4935896;29;20797;-68
2022/07/25 04:42:45;;;;;;;0.40;0.30;;;19.80;99.90;;;;;;4936929;29;20811;-69
2022/07/25 04:45:10;;;;;;;0.40;0.30;;;19.80;99.90;;;;;;4935548;29;21103;-68
2022/07/25 04:47:36;;;;;;;0.40;0.30;;;19.80;99.90;;;;;;4936794;29;20488;-69
2022/07/25 04:50:02;;;;;;;0.40;0.30;;;19.80;99.90;;;;;;4936029;29;20388;-69
2022/07/25 04:52:27;;;;;;;0.40;0.30;;;19.90;99.90;;;;;;4936641;29;20861;-69
2022/07/25 04:54:53;;;;;;;0.40;0.32;;;19.80;99.90;;;;;;4935682;29;20788;-70
2022/07/25 04:57:19;;;;;;;0.50;0.50;;;19.80;99.90;;;;;;4936151;29;20403;-70
2022/07/25 04:59:44;;;;;;;0.50;0.50;;;19.90;99.90;;;;;;4936658;29;20391;-69
2022/07/25 05:02:10;;;;;;;0.40;0.30;;;19.90;99.90;;;;;;4935641;29;20403;-70
2022/07/25 05:04:36;;;;;;;0.40;0.30;;;20.10;99.90;;;;;;4935402;29;20400;-69
2022/07/25 05:07:02;;;;;;;1.00;0.90;;;20.00;99.90;;;;;;4934489;29;20403;-71
2022/07/25 05:09:27;;;;;;;0.40;0.40;;;20.10;99.90;;;;;;4936176;29;20510;-69
2022/07/25 05:11:53;;;;;;;0.50;0.50;;;20.40;99.90;;;;;;4932108;29;20786;-70
2022/07/25 05:14:19;;;;;;;0.40;0.30;;;20.30;99.90;;;;;;4936019;29;20511;-69
2022/07/25 05:16:44;;;;;;;0.40;0.30;;;20.40;99.90;;;;;;4935641;29;20396;-70
2022/07/25 05:19:10;;;;;;;0.90;0.90;;;20.40;99.90;;;;;;4935332;29;20832;-70
2022/07/25 05:21:37;;;;;;;2.20;2.10;;;20.50;99.90;;;;;;4935074;29;20449;-69
2022/07/25 05:24:03;;;;;;;0.40;0.30;;;20.60;99.90;;;;;;4933731;29;20442;-69
2022/07/25 05:26:29;;;;;;;0.40;0.20;;;20.60;99.90;;;;;;4934592;29;20424;-69
2022/07/25 05:28:54;;;;;;;0.40;0.20;;;20.80;99.90;;;;;;4934865;29;20400;-70
2022/07/25 05:31:20;;;;;;;0.40;0.40;;;20.90;99.90;;;;;;4933074;29;20402;-69
2022/07/25 05:33:46;;;;;;;1.00;0.80;;;20.90;99.90;;;;;;4934755;29;20391;-69
2022/07/25 05:36:11;;;;;;;0.50;0.40;;;21.00;99.90;;;;;;4932802;29;20395;-69
2022/07/25 05:38:37;;;;;;;0.70;0.70;;;20.90;99.90;;;;;;4944691;28;20431;-69
2022/07/25 05:41:03;;;;;;;0.80;0.80;;;20.90;99.90;;;;;;4932754;29;20408;-70
2022/07/25 05:43:29;;;;;;;0.40;0.30;;;21.00;99.90;;;;;;4933990;29;20402;-69
2022/07/25 05:46:03;;;;;;;0.50;0.50;;;21.20;99.90;;;;;;4934526;29;20399;-70
2022/07/25 05:48:30;;;;;;;1.00;0.90;;;21.30;99.90;;;;;;4926814;29;20815;-69
2022/07/25 05:50:57;;;;;;;1.40;1.30;;;21.30;99.90;;;;;;4933892;29;20909;-70
2022/07/25 05:53:24;;;;;;;0.40;0.30;;;21.50;99.90;;;;;;4933936;29;20391;-69
2022/07/25 05:55:49;;;;;;;0.50;0.50;;;21.70;99.90;;;;;;4934148;29;20460;-70
2022/07/25 05:58:15;;;;;;;0.70;0.70;;;21.70;99.90;;;;;;4933638;29;20520;-68
2022/07/25 06:00:41;;;;;;;0.40;0.30;;;21.90;99.90;;;;;;4934146;29;20388;-68
2022/07/25 06:03:07;;;;;;;2.20;0.90;;;21.90;99.90;;;;;;4932280;29;20392;-68
2022/07/25 06:05:33;;;;;;;0.60;0.60;;;22.00;99.90;;;;;;4934187;29;20427;-68
2022/07/25 06:07:58;;;;;;;0.60;0.60;;;22.00;99.90;;;;;;4932880;29;20947;-69
2022/07/25 06:10:24;;;;;;;0.70;0.70;;;22.10;99.90;;;;;;4933946;29;20396;-69
2022/07/25 06:12:50;;;;;;;0.70;0.70;;;22.20;99.90;;;;;;4933496;29;20402;-69
2022/07/25 06:15:15;;;;;;;0.53;0.53;;;22.30;99.90;;;;;;4932949;29;20412;-69
2022/07/25 06:17:41;;;;;;;0.50;0.50;;;22.60;99.90;;;;;;4933079;29;20521;-69
2022/07/25 06:20:08;;;;;;;0.50;0.50;;;22.60;99.90;;;;;;4932379;29;20508;-69
2022/07/25 06:22:34;;;;;;;1.00;1.00;;;22.70;99.90;;;;;;4932321;29;20400;-70
2022/07/25 06:25:01;;;;;;;0.50;0.50;;;22.80;99.90;;;;;;4914516;29;20415;-70
2022/07/25 06:27:28;;;;;;;0.65;0.65;;;22.90;99.90;;;;;;4926780;29;20777;-69
2022/07/25 06:29:53;;;;;;;0.40;0.30;;;23.10;99.90;;;;;;4932060;29;20396;-69
2022/07/25 06:32:19;;;;;;;0.40;0.30;;;23.20;99.90;;;;;;4934676;29;20812;-70
2022/07/25 06:34:45;;;;;;;0.70;0.70;;;23.20;99.90;;;;;;4935034;29;20411;-70
2022/07/25 06:37:10;;;;;;;0.40;0.25;;;23.20;99.90;;;;;;4933578;29;20404;-70
2022/07/25 06:39:36;;;;;;;0.40;0.30;;;23.40;99.90;;;;;;4934730;29;20396;-69
2022/07/25 06:42:03;;;;;;;1.45;0.70;;;23.50;99.90;;;;;;4933735;29;20458;-68
2022/07/25 06:44:32;;;;;;;3.80;1.70;;;23.70;99.90;;;;;;4934681;29;20718;-69
2022/07/25 06:47:01;;;;;;;0.82;0.82;;;23.80;99.90;;;;;;4933595;29;20876;-70
2022/07/25 06:49:27;;;;;;;0.80;0.80;;;23.90;99.90;;;;;;4933623;29;20390;-68
2022/07/25 06:51:53;;;;;;;0.50;0.40;;;24.00;99.90;;;;;;4934435;29;20744;-69
2022/07/25 06:54:19;;;;;;;0.40;0.30;;;24.10;99.90;;;;;;4933640;29;20969;-69
2022/07/25 06:56:45;;;;;;;0.40;0.30;;;24.10;99.90;;;;;;4934430;29;20407;-69
2022/07/25 06:59:11;;;;;;;0.60;0.60;;;24.30;99.90;;;;;;4933475;29;20395;-69
2022/07/25 07:01:37;;;;;;;0.60;0.60;;;24.50;99.90;;;;;;4934489;29;20398;-69
2022/07/25 07:04:03;;;;;;;0.70;0.70;;;24.70;99.90;;;;;;4933429;29;20396;-69
2022/07/25 07:06:29;;;;;;;0.40;0.30;;;24.80;99.90;;;;;;4934327;29;20475;-69
2022/07/25 07:08:55;;;;;;;0.40;0.30;;;25.00;99.90;;;;;;4934226;29;20821;-66
2022/07/25 07:11:21;;;;;;;0.40;0.40;;;25.90;97.90;;;;;;4933434;29;20384;-68
2022/07/25 07:13:46;;;;;;;0.40;0.30;;;27.10;90.60;;;;;;4934229;29;20845;-68
2022/07/25 07:16:12;;;;;;;0.40;0.30;;;27.30;90.50;;;;;;4933078;29;20445;-68
2022/07/25 07:18:38;;;;;;;0.40;0.20;;;27.70;82.80;;;;;;4934154;29;20384;-70
2022/07/25 07:21:04;;;;;;;0.50;0.50;;;28.00;80.60;;;;;;4933374;29;20380;-70
2022/07/25 07:23:31;;;;;;;1.52;0.88;;;28.10;77.70;;;;;;4933673;29;20423;-68
2022/07/25 07:25:57;;;;;;;0.82;0.82;;;28.40;75.50;;;;;;4933920;29;20399;-69
2022/07/25 07:28:23;;;;;;;0.40;0.30;;;28.60;74.20;;;;;;4933277;29;20449;-70
2022/07/25 07:30:48;;;;;;;0.40;0.30;;;28.30;74.90;;;;;;4933669;29;20392;-68
2022/07/25 07:33:14;;;;;;;0.40;0.40;;;28.60;72.70;;;;;;4933066;29;20414;-68
2022/07/25 07:35:43;;;;;;;0.45;0.40;;;28.50;71.90;;;;;;4933720;29;20430;-70
2022/07/25 07:38:09;;;;;;;0.90;0.70;;;28.60;71.30;;;;;;4915985;29;20395;-67
2022/07/25 07:40:35;;;;;;;0.40;0.20;;;28.70;70.40;;;;;;4933540;29;20402;-68
2022/07/25 07:43:02;;;;;;;0.98;0.98;;;28.70;70.00;;;;;;4933309;29;20474;-71
2022/07/25 07:45:29;;;;;;;0.40;0.30;;;28.60;68.90;;;;;;4933844;29;20715;-70
2022/07/25 07:47:55;;;;;;;0.40;0.30;;;28.60;69.90;;;;;;4933648;29;20387;-70
2022/07/25 07:50:26;;;;;;;0.40;0.30;;;28.90;67.30;;;;;;4933007;29;20613;-67
2022/07/25 07:52:53;;;;;;;0.40;0.40;;;28.90;65.10;;;;;;4933565;29;20388;-70
2022/07/25 07:58:04;;;;;;;0.40;0.30;;;29.20;63.60;;;;;;4932820;29;20439;-71
2022/07/25 08:00:30;;;;;;;0.40;0.20;;;29.00;64.60;;;;;;4934060;29;20478;-71
2022/07/25 08:02:57;;;;;;;0.40;0.30;;;29.00;63.40;;;;;;4937257;29;20486;-70
2022/07/25 08:05:24;;;;;;;0.40;0.20;;;29.10;63.40;;;;;;4936646;29;20403;-71
2022/07/25 08:07:50;;;;;;;0.40;0.20;;;29.00;63.60;;;;;;4937398;29;20392;-71
2022/07/25 08:10:25;;;;;;;0.40;0.30;;;29.20;63.20;;;;;;4936650;29;20462;-70
2022/07/25 08:12:51;;;;;;;0.40;0.30;;;29.10;62.20;;;;;;4937623;29;20396;-70
2022/07/25 08:15:18;;;;;;;0.40;0.20;;;29.40;61.10;;;;;;4936515;29;20415;-68
2022/07/25 08:17:45;;;;;;;0.40;0.38;;;29.60;60.60;;;;;;4937060;29;20868;-70
2022/07/25 08:20:12;;;;;;;0.40;0.20;;;29.30;61.70;;;;;;4936492;29;20402;-69
2022/07/25 08:22:43;;;;;;;0.43;0.43;;;29.40;59.60;;;;;;4937295;29;20399;-69
2022/07/25 08:25:12;;;;;;;0.57;0.40;;;29.50;58.80;;;;;;4935982;29;20411;-69
2022/07/25 08:27:38;;;;;;;0.40;0.25;;;29.50;59.00;;;;;;4934746;29;20443;-69
2022/07/25 08:30:05;;;;;;;0.40;0.20;;;29.70;57.90;;;;;;4928219;29;20429;-69
2022/07/25 08:32:31;;;;;;;0.40;0.20;;;29.70;57.90;;;;;;4917784;29;20400;-71
2022/07/25 08:34:58;;;;;;;0.60;0.50;;;29.60;57.60;;;;;;4927323;29;20423;-71
2022/07/25 08:37:23;;;;;;;0.40;0.30;;;29.70;58.00;;;;;;4916627;29;20404;-70
2022/07/25 08:39:50;;;;;;;0.40;0.20;;;29.70;58.40;;;;;;4917634;29;20420;-69
2022/07/25 08:42:18;;;;;;;0.40;0.30;;;29.90;57.60;;;;;;4915625;29;20408;-69
2022/07/25 08:44:57;;;;;;;0.40;0.30;;;29.80;57.90;;;;;;4917629;29;20450;-70
2022/07/25 08:47:23;;;;;;;0.40;0.30;;;29.80;57.50;;;;;;4932234;29;20399;-69
2022/07/25 08:49:50;;;;;;;0.50;0.40;;;29.90;57.00;;;;;;4935891;29;20383;-69
2022/07/25 08:52:17;;;;;;;2.60;0.80;;;29.90;57.40;;;;;;4935798;29;20714;-68
2022/07/25 08:54:46;;;;;;;0.40;0.30;;;30.10;56.80;;;;;;4918936;29;20458;-69
2022/07/25 08:57:12;;;;;;;0.80;0.70;;;30.00;57.10;;;;;;4935282;29;20701;-68
2022/07/25 08:59:38;;;;;;;0.40;0.30;;;30.00;56.90;;;;;;4936335;29;20395;-71
2022/07/25 09:02:07;;;;;;;0.40;0.20;;;30.20;57.10;;;;;;4936255;29;20475;-68
2022/07/25 09:04:36;;;;;;;0.40;0.40;;;30.10;57.10;;;;;;4935722;29;20408;-67
2022/07/25 09:07:03;;;;;;;0.40;0.40;;;30.10;56.90;;;;;;4936155;29;20427;-69
2022/07/25 09:09:37;;;;;;;0.40;0.30;;;30.10;57.80;;;;;;4935654;29;20396;-68
2022/07/25 09:12:04;;;;;;;0.40;0.20;;;30.00;58.10;;;;;;4935082;29;20491;-69
2022/07/25 09:14:30;;;;;;;0.40;0.30;;;30.00;57.40;;;;;;4935498;29;20420;-67
2022/07/25 09:16:56;;;;;;;0.40;0.30;;;30.10;58.00;;;;;;4935605;29;20398;-69
2022/07/25 09:19:24;;;;;;;0.40;0.20;;;30.10;57.80;;;;;;4934873;29;20403;-69
2022/07/25 09:22:01;;;;;;;0.40;0.20;;;30.30;58.30;;;;;;4935409;29;20392;-69
2022/07/25 09:24:27;;;;;;;0.40;0.30;;;30.20;57.70;;;;;;4934627;29;21064;-69
2022/07/25 09:26:57;;;;;;;0.40;0.30;;;30.30;58.00;;;;;;4935901;29;20399;-69
2022/07/25 09:29:25;;;;;;;0.80;0.60;;;30.30;58.30;;;;;;4934836;29;20388;-69
2022/07/25 09:31:53;;;;;;;1.30;1.00;;;30.20;58.50;;;;;;4935590;29;20392;-68
2022/07/25 09:34:29;;;;;;;0.40;0.30;;;30.40;58.00;;;;;;4934374;29;20467;-69
2022/07/25 09:36:55;;;;;;;0.40;0.20;;;30.40;58.30;;;;;;4934239;29;20415;-69
2022/07/25 09:39:51;;;;;;;0.40;0.30;;;30.40;58.20;;;;;;4933399;29;20877;-68
2022/07/25 09:42:31;;;;;;;0.40;0.20;;;30.40;58.10;;;;;;4934325;29;20545;-68
2022/07/25 09:45:10;;;;;;;0.40;0.30;;;30.60;57.60;;;;;;4935278;29;20486;-68
2022/07/25 09:47:37;;;;;;;0.40;0.20;;;30.70;57.40;;;;;;4935196;29;20396;-69
2022/07/25 09:50:04;;;;;;;0.40;0.27;;;30.60;58.00;;;;;;4935533;29;20446;-69
2022/07/25 09:52:32;;;;;;;0.40;0.40;;;30.50;57.90;;;;;;4934848;29;20392;-70
2022/07/25 09:55:03;;;;;;;0.40;0.30;;;30.50;58.40;;;;;;4935020;29;20458;-68
2022/07/25 09:57:29;;;;;;;0.40;0.30;;;30.70;58.30;;;;;;4934683;29;20398;-69
2022/07/25 09:59:57;;;;;;;0.40;0.20;;;30.80;58.20;;;;;;4934980;29;20737;-69
2022/07/25 10:02:30;;;;;;;0.50;0.40;;;30.70;58.20;;;;;;4934791;29;20400;-68
2022/07/25 10:05:12;;;;;;;0.40;0.30;;;31.00;57.50;;;;;;4934938;29;20399;-69
2022/07/25 10:07:43;;;;;;;0.40;0.30;;;30.90;58.10;;;;;;4934840;29;20876;-69
2022/07/25 10:10:29;;;;;;;0.40;0.20;;;31.10;58.00;;;;;;4932599;29;20384;-69
2022/07/25 10:13:45;;;;;;;0.40;0.20;;;31.00;58.00;;;;;;4933732;29;20410;-69
2022/07/25 10:16:27;;;;;;;0.40;0.20;;;31.10;57.10;;;;;;4933739;29;20947;-70
2022/07/25 10:22:15;;;;;;;0.40;0.20;;;31.20;56.70;;;;;;4966358;22;20474;-71
2022/07/25 10:24:46;;;;;;;0.40;0.30;;;31.30;57.40;;;;;;4988455;28;20406;-71
2022/07/25 10:27:21;;;;;;;0.40;0.30;;;31.50;57.70;;;;;;4972634;28;20408;-73
2022/07/25 10:29:52;;;;;;;0.40;0.20;;;31.40;57.80;;;;;;4987461;28;20426;-68
2022/07/25 10:32:18;;;;;;;0.40;0.30;;;31.60;56.80;;;;;;4977875;28;20391;-70
2022/07/25 10:34:53;;;;;;;0.40;0.30;;;31.60;57.00;;;;;;4991606;28;20748;-71
2022/07/25 10:37:26;;;;;;;0.55;0.45;;;31.70;57.20;;;;;;4991781;28;20398;-72
2022/07/25 10:39:52;;;;;;;0.50;0.50;;;31.90;57.30;;;;;;4992388;28;20474;-72
2022/07/25 10:42:22;;;;;;;0.40;0.20;;;31.90;56.60;;;;;;4991138;28;20395;-70
2022/07/25 10:44:52;;;;;;;0.40;0.20;;;31.90;56.50;;;;;;4992498;28;20823;-68
2022/07/25 10:47:22;;;;;;;0.40;0.30;;;31.80;56.50;;;;;;4977979;28;20388;-71
2022/07/25 10:49:56;;;;;;;0.50;0.50;;;32.10;56.10;;;;;;4972775;28;20836;-71
2022/07/25 10:52:27;;;;;;;0.90;0.80;;;32.20;56.90;;;;;;4972202;28;20392;-70
2022/07/25 10:54:58;;;;;;;0.40;0.30;;;32.10;56.30;;;;;;4972775;28;20423;-71
2022/07/25 10:57:24;;;;;;;0.40;0.20;;;32.00;56.40;;;;;;4971735;28;20396;-71
2022/07/25 10:59:50;;;;;;;0.60;0.60;;;32.30;56.70;;;;;;4972805;28;20392;-69
2022/07/25 11:02:16;;;;;;;0.40;0.30;;;32.30;56.50;;;;;;4987299;28;20424;-72
2022/07/25 11:04:59;;;;;;;0.60;0.60;;;32.50;56.70;;;;;;4991484;28;20921;-71
2022/07/25 11:07:27;;;;;;;0.40;0.30;;;32.60;56.20;;;;;;5005777;28;20473;-71
2022/07/25 11:09:59;;;;;;;0.40;0.20;;;32.70;56.40;;;;;;4990463;28;20530;-71
2022/07/25 11:12:26;;;;;;;0.40;0.20;;;32.70;55.20;;;;;;4990701;28;20410;-71
2022/07/25 11:14:59;;;;;;;0.50;0.40;;;32.80;56.20;;;;;;4991093;28;20494;-71
2022/07/25 11:17:25;;;;;;;0.40;0.20;;;33.00;54.30;;;;;;4990596;28;20386;-70
2022/07/25 11:19:57;;;;;;;0.40;0.30;;;32.90;53.80;;;;;;4991535;28;20489;-70
2022/07/25 11:22:24;;;;;;;0.40;0.30;;;33.00;54.00;;;;;;4990305;28;20410;-71
2022/07/25 11:24:50;;;;;;;0.40;0.20;;;33.30;53.30;;;;;;4988528;28;20852;-72
2022/07/25 11:27:24;;;;;;;0.40;0.20;;;33.40;52.60;;;;;;4990358;28;20398;-71
2022/07/25 11:29:50;;;;;;;0.40;0.20;;;33.50;52.90;;;;;;4991122;28;20436;-70
2022/07/25 11:32:16;;;;;;;0.90;0.90;;;32.90;53.50;;;;;;4990250;28;20383;-70
2022/07/25 11:34:48;;;;;;;0.50;0.50;;;32.60;53.90;;;;;;4991060;28;20809;-71
2022/07/25 11:37:15;;;;;;;0.40;0.20;;;32.50;54.00;;;;;;4989488;28;20424;-72
2022/07/25 11:39:43;;;;;;;0.60;0.60;;;32.30;54.70;;;;;;4991157;28;20440;-71
2022/07/25 11:42:15;;;;;;;0.40;0.20;;;32.30;55.40;;;;;;4986263;28;20419;-70
2022/07/25 11:44:49;;;;;;;0.40;0.20;;;32.40;53.90;;;;;;4971793;28;20764;-70
2022/07/25 11:47:25;;;;;;;0.70;0.60;;;32.60;54.60;;;;;;4981279;28;20494;-71
2022/07/25 11:49:53;;;;;;;0.40;0.30;;;32.60;54.70;;;;;;4990531;28;20398;-71
2022/07/25 11:52:19;;;;;;;0.43;0.30;;;32.40;54.30;;;;;;4988947;28;20444;-71
2022/07/25 11:54:54;;;;;;;0.40;0.20;;;32.70;54.10;;;;;;4990001;28;20917;-71
2022/07/25 11:57:29;;;;;;;0.40;0.20;;;32.90;53.40;;;;;;4989969;28;20436;-72
2022/07/25 11:59:55;;;;;;;0.50;0.50;;;33.70;53.50;;;;;;4990938;28;20387;-71
2022/07/25 12:02:32;;;;;;;0.40;0.20;;;34.10;51.20;;;;;;4982196;28;20384;-72
2022/07/25 12:05:03;;;;;;;0.40;0.20;;;34.50;49.80;;;;;;4977251;28;20720;-71
2022/07/25 12:07:49;;;;;;;0.40;0.20;;;34.60;49.50;;;;;;4986635;28;20398;-71
2022/07/25 12:10:38;;;;;;;0.40;0.20;;;34.60;48.80;;;;;;4971000;28;20391;-72
2022/07/25 12:13:05;;;;;;;0.40;0.30;;;34.80;47.70;;;;;;4982186;28;20390;-71
2022/07/25 12:15:39;;;;;;;0.40;0.20;;;34.60;45.80;;;;;;4990493;28;20437;-71
2022/07/25 12:18:08;;;;;;;0.40;0.20;;;34.30;46.20;;;;;;4990460;28;20397;-70
2022/07/25 12:20:39;;;;;;;0.40;0.30;;;33.70;47.40;;;;;;4990503;28;20383;-68
2022/07/25 12:23:10;;;;;;;0.40;0.20;;;33.60;48.10;;;;;;4990353;28;20418;-69
2022/07/25 12:25:41;;;;;;;0.60;0.40;;;33.30;47.20;;;;;;4977034;28;20400;-71
2022/07/25 12:28:09;;;;;;;0.40;0.20;;;33.30;46.60;;;;;;4980307;28;20390;-72
2022/07/25 12:30:36;;;;;;;0.40;0.20;;;33.70;47.30;;;;;;4990900;28;20445;-71
2022/07/25 12:33:02;;;;;;;0.40;0.20;;;33.40;48.60;;;;;;4989352;28;20780;-71
2022/07/25 12:35:31;;;;;;;0.50;0.40;;;33.40;48.50;;;;;;4990046;28;20468;-72
2022/07/25 12:37:57;;;;;;;0.40;0.30;;;33.60;48.20;;;;;;4990615;28;20393;-71
2022/07/25 12:40:23;;;;;;;0.40;0.20;;;33.60;47.80;;;;;;4989692;28;20919;-72
2022/07/25 12:42:49;;;;;;;0.40;0.20;;;33.80;48.60;;;;;;4990045;28;20886;-68
2022/07/25 12:45:16;;;;;;;0.40;0.20;;;34.10;47.40;;;;;;4989526;28;20391;-71
2022/07/25 12:47:46;;;;;;;0.40;0.30;;;33.90;48.10;;;;;;4993024;28;20867;-71
2022/07/25 12:50:14;;;;;;;0.40;0.20;;;34.10;49.10;;;;;;4993413;28;20394;-71
2022/07/25 12:52:41;;;;;;;0.40;0.20;;;34.20;49.70;;;;;;4993992;28;20490;-70
2022/07/25 12:55:08;;;;;;;0.40;0.40;;;34.10;48.50;;;;;;4993478;28;20462;-70